createdAt,value
2023-01-27T00:02:38.627Z,-30.59
2023-01-27T00:05:42.874Z,-30.09
2023-01-27T00:08:47.711Z,-30.17
2023-01-27T00:12:10.408Z,-30.28
2023-01-27T00:15:16.308Z,-29.85
2023-01-27T00:18:21.036Z,-28.86
2023-01-27T00:21:43.004Z,-28.88
2023-01-27T00:24:47.410Z,-28.65
2023-01-27T00:27:51.903Z,-28.52
2023-01-27T00:30:56.017Z,-28.55
2023-01-27T00:34:09.973Z,-27.97
2023-01-27T00:37:16.856Z,-27.20
2023-01-27T00:40:20.947Z,-26.46
2023-01-27T00:43:25.251Z,-25.98
2023-01-27T00:46:29.447Z,-24.83
2023-01-27T00:49:33.906Z,-23.95
2023-01-27T00:52:40.690Z,-22.69
2023-01-27T00:55:45.318Z,-22.49
2023-01-27T00:58:49.634Z,-22.05
2023-01-27T01:01:53.954Z,-22.02
2023-01-27T01:04:58.364Z,-21.13
2023-01-27T01:08:02.958Z,-20.26
2023-01-27T01:11:09.379Z,-19.77
2023-01-27T01:14:13.794Z,-19.26
2023-01-27T01:17:17.872Z,-19.63
2023-01-27T01:20:22.582Z,-20.32
2023-01-27T01:23:26.866Z,-20.24
2023-01-27T01:26:30.863Z,-20.16
2023-01-27T01:29:35.731Z,-19.58
2023-01-27T01:32:39.489Z,-18.80
2023-01-27T01:35:44.280Z,-18.65
2023-01-27T01:38:48.488Z,-18.89
2023-01-27T01:41:52.365Z,-18.31
2023-01-27T01:45:45.438Z,-18.10
2023-01-27T01:48:57.288Z,-18.31
2023-01-27T01:52:08.706Z,-17.69
2023-01-27T01:55:13.857Z,-16.70
2023-01-27T01:58:18.677Z,-17.44
2023-01-27T02:01:23.132Z,-15.74
2023-01-27T02:04:32.776Z,-17.44
2023-01-27T02:07:37.582Z,-18.82
2023-01-27T02:10:42.570Z,-17.80
2023-01-27T02:13:46.802Z,-16.48
2023-01-27T02:16:51.485Z,-16.12
2023-01-27T02:20:13.803Z,-15.96
2023-01-27T02:23:20.101Z,-16.73
2023-01-27T02:26:35.574Z,-16.61
2023-01-27T02:29:39.179Z,-17.73
2023-01-27T02:32:43.912Z,-19.27
2023-01-27T02:36:00.607Z,-18.52
2023-01-27T02:39:06.522Z,-18.17
2023-01-27T02:42:13.922Z,-17.57
2023-01-27T02:45:18.676Z,-18.31
2023-01-27T02:48:23.058Z,-18.95
2023-01-27T02:51:27.783Z,-18.88
2023-01-27T02:54:32.537Z,-18.63
2023-01-27T02:57:39.108Z,-18.10
2023-01-27T03:01:06.772Z,-19.96
2023-01-27T03:04:12.779Z,-20.06
2023-01-27T03:07:17.463Z,-20.21
2023-01-27T03:10:22.114Z,-20.09
2023-01-27T03:13:28.918Z,-18.90
2023-01-27T03:16:52.220Z,-18.83
2023-01-27T03:19:57.035Z,-20.68
2023-01-27T03:23:03.457Z,-20.30
2023-01-27T03:26:11.699Z,-20.35
2023-01-27T03:29:38.850Z,-20.42
2023-01-27T03:32:47.499Z,-19.90
2023-01-27T03:36:33.278Z,-19.84
2023-01-27T03:39:56.017Z,-20.17
2023-01-27T03:43:19.228Z,-20.78
2023-01-27T03:46:23.863Z,-20.48
2023-01-27T03:49:28.377Z,-19.81
2023-01-27T03:52:33.376Z,-20.42
2023-01-27T03:55:39.123Z,-20.14
2023-01-27T03:58:43.567Z,-20.33
2023-01-27T04:01:48.117Z,-20.40
2023-01-27T04:05:11.381Z,-20.25
2023-01-27T04:08:16.228Z,-19.88
2023-01-27T04:11:39.080Z,-20.54
2023-01-27T04:14:43.055Z,-19.90
2023-01-27T04:17:47.460Z,-20.19
2023-01-27T04:20:51.784Z,-19.89
2023-01-27T04:23:56.516Z,-20.04
2023-01-27T04:27:44.327Z,-20.21
2023-01-27T04:30:49.595Z,-20.27
2023-01-27T04:33:57.183Z,-19.42
2023-01-27T04:37:03.986Z,-19.60
2023-01-27T04:40:13.026Z,-19.23
2023-01-27T04:43:20.397Z,-19.43
2023-01-27T04:46:27.552Z,-18.88
2023-01-27T04:49:48.522Z,-19.34
2023-01-27T04:53:02.705Z,-20.16
2023-01-27T04:56:19.412Z,-19.95
2023-01-27T04:59:24.058Z,-19.42
2023-01-27T05:02:28.628Z,-19.05
2023-01-27T05:05:35.319Z,-19.63
2023-01-27T05:10:22.353Z,-19.47
2023-01-27T05:16:46.735Z,-18.67
2023-01-27T05:19:50.879Z,-18.87
2023-01-27T05:23:19.057Z,-19.31
2023-01-27T05:26:26.183Z,-19.07
2023-01-27T05:29:30.820Z,-18.88
2023-01-27T05:32:37.322Z,-17.91
2023-01-27T05:35:41.379Z,-18.82
2023-01-27T05:38:46.666Z,-18.86
2023-01-27T05:41:51.253Z,-18.83
2023-01-27T05:44:55.869Z,-18.68
2023-01-27T05:48:00.579Z,-19.19
2023-01-27T05:51:06.648Z,-18.23
2023-01-27T05:54:11.436Z,-17.97
2023-01-27T05:57:16.835Z,-18.51
2023-01-27T06:00:22.167Z,-18.33
2023-01-27T06:03:29.385Z,-18.65
2023-01-27T06:06:35.202Z,-18.74
2023-01-27T06:09:40.679Z,-18.56
2023-01-27T06:12:48.306Z,-18.71
2023-01-27T06:15:52.576Z,-18.67
2023-01-27T06:18:56.776Z,-18.97
2023-01-27T06:22:02.839Z,-18.67
2023-01-27T06:25:07.954Z,-18.66
2023-01-27T06:28:17.136Z,-18.30
2023-01-27T06:31:34.502Z,-19.06
2023-01-27T06:34:39.650Z,-18.84
2023-01-27T06:37:47.299Z,-18.89
2023-01-27T06:40:52.316Z,-18.67
2023-01-27T06:43:57.277Z,-18.70
2023-01-27T06:47:01.658Z,-18.21
2023-01-27T06:50:08.567Z,-18.08
2023-01-27T06:53:16.472Z,-18.62
2023-01-27T06:56:20.294Z,-19.27
2023-01-27T06:59:29.604Z,-18.90
2023-01-27T07:02:34.404Z,-18.57
2023-01-27T07:05:43.392Z,-18.62
2023-01-27T07:08:50.376Z,-18.33
2023-01-27T07:11:54.836Z,-18.58
2023-01-27T07:15:05.136Z,-19.45
2023-01-27T07:18:15.315Z,-19.29
2023-01-27T07:21:21.522Z,-19.19
2023-01-27T07:24:28.125Z,-19.39
2023-01-27T07:27:32.056Z,-19.90
2023-01-27T07:30:41.273Z,-20.23
2023-01-27T07:33:46.040Z,-20.65
2023-01-27T07:36:50.687Z,-20.12
2023-01-27T07:39:57.036Z,-19.80
2023-01-27T07:43:03.066Z,-19.89
2023-01-27T07:46:10.629Z,-19.69
2023-01-27T07:49:15.157Z,-20.00
2023-01-27T07:52:19.344Z,-20.21
2023-01-27T07:55:23.278Z,-20.33
2023-01-27T07:58:27.139Z,-20.65
2023-01-27T08:01:31.766Z,-20.89
2023-01-27T08:04:50.791Z,-20.99
2023-01-27T08:07:58.958Z,-21.46
2023-01-27T08:11:05.975Z,-21.85
2023-01-27T08:14:10.328Z,-22.38
2023-01-27T08:17:14.291Z,-22.09
2023-01-27T08:20:19.815Z,-22.04
2023-01-27T08:23:24.792Z,-22.43
2023-01-27T08:26:32.256Z,-22.94
2023-01-27T08:29:36.252Z,-23.41
2023-01-27T08:32:40.115Z,-23.10
2023-01-27T08:35:45.684Z,-22.56
2023-01-27T08:38:50.650Z,-22.44
2023-01-27T08:41:55.102Z,-23.69
2023-01-27T08:45:01.258Z,-23.39
2023-01-27T08:48:08.695Z,-23.53
2023-01-27T08:51:15.788Z,-23.85
2023-01-27T08:54:20.133Z,-24.18
2023-01-27T08:57:25.921Z,-24.06
2023-01-27T09:00:30.149Z,-24.23
2023-01-27T09:03:35.545Z,-24.25
2023-01-27T09:06:39.477Z,-24.18
2023-01-27T09:09:48.019Z,-23.93
2023-01-27T09:12:52.248Z,-23.97
2023-01-27T09:15:57.285Z,-23.96
2023-01-27T09:19:01.880Z,-24.08
2023-01-27T09:22:06.728Z,-24.89
2023-01-27T09:25:15.570Z,-24.65
2023-01-27T09:28:19.880Z,-25.04
2023-01-27T09:31:25.646Z,-25.20
2023-01-27T09:34:30.365Z,-25.28
2023-01-27T09:37:40.385Z,-25.21
2023-01-27T09:41:26.263Z,-25.65
2023-01-27T09:45:00.046Z,-25.24
2023-01-27T09:48:25.600Z,-25.23
2023-01-27T09:51:51.073Z,-24.98
2023-01-27T09:54:58.222Z,-25.17
2023-01-27T09:58:08.090Z,-24.97
2023-01-27T10:01:30.168Z,-24.97
2023-01-27T10:04:57.051Z,-24.96
2023-01-27T10:08:23.344Z,-24.80
2023-01-27T10:11:56.644Z,-24.41
2023-01-27T10:15:13.655Z,-24.54
2023-01-27T10:18:24.615Z,-24.88
2023-01-27T10:21:39.990Z,-25.46
2023-01-27T10:24:50.220Z,-24.97
2023-01-27T10:28:00.622Z,-25.08
2023-01-27T10:31:17.885Z,-25.55
2023-01-27T10:34:45.281Z,-24.98
2023-01-27T10:38:14.222Z,-25.25
2023-01-27T10:42:10.560Z,-25.71
2023-01-27T10:45:54.842Z,-25.99
2023-01-27T10:49:11.519Z,-26.40
2023-01-27T10:52:33.231Z,-26.26
2023-01-27T10:56:11.231Z,-25.74
2023-01-27T10:59:27.319Z,-25.31
2023-01-27T11:02:42.971Z,-25.60
2023-01-27T11:05:54.819Z,-26.40
2023-01-27T11:09:24.142Z,-26.81
2023-01-27T11:12:42.446Z,-26.14
2023-01-27T11:15:47.080Z,-26.36
2023-01-27T11:18:58.499Z,-26.48
2023-01-27T11:22:09.229Z,-26.39
2023-01-27T11:25:26.823Z,-26.02
2023-01-27T11:28:46.734Z,-26.34
2023-01-27T11:32:12.325Z,-26.32
2023-01-27T11:35:17.945Z,-26.55
2023-01-27T11:38:24.399Z,-26.41
2023-01-27T11:49:50.452Z,-26.84
2023-01-27T11:53:20.678Z,-26.76
2023-01-27T11:56:25.837Z,-27.08
2023-01-27T11:59:49.879Z,-27.98
2023-01-27T12:03:23.761Z,-27.40
2023-01-27T12:06:46.882Z,-27.97
2023-01-27T12:09:51.115Z,-28.04
2023-01-27T12:12:55.618Z,-28.00
2023-01-27T12:16:07.160Z,-28.21
2023-01-27T12:19:32.928Z,-27.50
2023-01-27T12:22:49.139Z,-27.83
2023-01-27T12:26:13.212Z,-27.80
2023-01-27T12:29:30.819Z,-27.37
2023-01-27T12:32:41.370Z,-27.71
2023-01-27T12:35:50.579Z,-28.09
2023-01-27T12:38:57.614Z,-28.05
2023-01-27T12:42:01.719Z,-28.67
2023-01-27T12:45:27.857Z,-28.78
2023-01-27T12:48:37.221Z,-28.96
2023-01-27T12:52:04.635Z,-29.30
2023-01-27T12:55:29.713Z,-29.47
2023-01-27T12:58:39.799Z,-30.10
2023-01-27T13:01:47.883Z,-29.99
2023-01-27T13:05:00.517Z,-30.23
2023-01-27T13:08:07.819Z,-30.00
2023-01-27T13:11:13.717Z,-29.95
2023-01-27T13:14:19.781Z,-30.11
2023-01-27T13:17:50.644Z,-30.40
2023-01-27T13:21:12.199Z,-29.89
2023-01-27T13:24:42.375Z,-30.45
2023-01-27T13:27:48.754Z,-29.96
2023-01-27T13:30:58.535Z,-29.56
2023-01-27T13:34:12.602Z,-29.01
2023-01-27T13:37:42.003Z,-29.45
2023-01-27T13:40:47.972Z,-30.16
2023-01-27T13:44:35.394Z,-30.62
2023-01-27T13:48:11.078Z,-30.80
2023-01-27T13:51:21.641Z,-31.10
2023-01-27T13:54:26.373Z,-30.65
2023-01-27T13:58:30.458Z,-30.97
2023-01-27T14:01:57.738Z,-30.48
2023-01-27T14:05:31.641Z,-30.64
2023-01-27T14:09:03.375Z,-31.27
2023-01-27T14:12:29.315Z,-30.69
2023-01-27T14:15:44.937Z,-31.37
2023-01-27T14:19:05.361Z,-31.04
2023-01-27T14:22:35.571Z,-31.24
2023-01-27T14:26:11.762Z,-32.32
2023-01-27T14:29:42.236Z,-31.07
2023-01-27T14:32:50.073Z,-31.31
2023-01-27T14:36:02.597Z,-31.42
2023-01-27T14:39:31.839Z,-31.04
2023-01-27T14:43:08.904Z,-30.98
2023-01-27T14:46:48.961Z,-31.16
2023-01-27T14:50:37.565Z,-31.37
2023-01-27T14:53:55.383Z,-30.92
2023-01-27T14:57:31.678Z,-30.94
2023-01-27T15:00:50.885Z,-30.71
2023-01-27T15:04:23.363Z,-31.66
2023-01-27T15:07:46.916Z,-31.46
2023-01-27T15:11:12.487Z,-31.73
2023-01-27T15:15:33.912Z,-31.43
2023-01-27T15:19:25.583Z,-31.43
2023-01-27T15:23:06.020Z,-32.31
2023-01-27T15:26:31.178Z,-31.88
2023-01-27T15:29:35.951Z,-32.27
2023-01-27T15:32:41.315Z,-32.71
2023-01-27T15:35:46.435Z,-32.72
2023-01-27T15:39:03.060Z,-34.34
2023-01-27T15:42:12.531Z,-32.03
2023-01-27T15:45:48.944Z,-31.51
2023-01-27T15:48:53.500Z,-31.53
2023-01-27T15:52:37.264Z,-31.89
2023-01-27T15:55:55.481Z,-32.53
2023-01-27T15:59:06.684Z,-32.71
2023-01-27T16:02:21.537Z,-31.91
2023-01-27T16:05:32.339Z,-31.40
2023-01-27T16:08:48.481Z,-31.96
2023-01-27T16:12:21.978Z,-31.82
2023-01-27T16:15:35.994Z,-31.79
2023-01-27T16:19:19.578Z,-31.92
2023-01-27T16:22:25.134Z,-32.21
2023-01-27T16:25:53.391Z,-31.75
2023-01-27T16:29:32.992Z,-32.02
2023-01-27T16:32:42.571Z,-31.97
2023-01-27T16:35:53.617Z,-32.15
2023-01-27T16:39:06.973Z,-32.22
2023-01-27T16:42:16.699Z,-32.18
2023-01-27T16:45:40.478Z,-32.42
2023-01-27T16:48:51.375Z,-32.40
2023-01-27T16:52:01.308Z,-31.97
2023-01-27T16:55:17.933Z,-32.43
2023-01-27T16:58:29.718Z,-32.14
2023-01-27T17:01:46.914Z,-32.02
2023-01-27T17:04:55.218Z,-32.64
2023-01-27T17:08:24.460Z,-33.33
2023-01-27T17:11:33.973Z,-32.85
2023-01-27T17:14:43.504Z,-32.69
2023-01-27T17:17:50.877Z,-32.49
2023-01-27T17:20:56.460Z,-33.19
2023-01-27T17:24:16.368Z,-33.08
2023-01-27T17:27:39.225Z,-33.42
2023-01-27T17:30:44.803Z,-33.42
2023-01-27T17:33:51.465Z,-33.63
2023-01-27T17:37:18.174Z,-33.86
2023-01-27T17:40:23.731Z,-33.39
2023-01-27T17:43:32.687Z,-32.82
2023-01-27T17:46:37.670Z,-33.30
2023-01-27T17:49:43.485Z,-33.31
2023-01-27T17:52:52.370Z,-33.10
2023-01-27T17:55:58.004Z,-33.09
2023-01-27T17:59:14.265Z,-33.50
2023-01-27T18:02:31.206Z,-32.98
2023-01-27T18:05:39.625Z,-35.29
2023-01-27T18:08:52.865Z,-33.38
2023-01-27T18:12:02.959Z,-33.49
2023-01-27T18:15:38.667Z,-33.15
2023-01-27T18:18:44.262Z,-33.64
2023-01-27T18:21:49.388Z,-33.75
2023-01-27T18:25:04.980Z,-33.23
2023-01-27T18:28:10.152Z,-32.90
2023-01-27T18:31:21.674Z,-32.94
2023-01-27T18:34:32.250Z,-32.30
2023-01-27T18:37:37.589Z,-32.19
2023-01-27T18:40:43.222Z,-32.44
2023-01-27T18:43:49.551Z,-32.58
2023-01-27T18:47:12.929Z,-33.08
2023-01-27T18:50:23.112Z,-33.46
2023-01-27T18:53:27.678Z,-33.36
2023-01-27T18:56:32.027Z,-33.22
2023-01-27T18:59:36.372Z,-33.70
2023-01-27T19:02:40.661Z,-33.65
2023-01-27T19:05:45.264Z,-34.40
2023-01-27T19:08:56.082Z,-34.42
2023-01-27T19:12:02.314Z,-34.06
2023-01-27T19:15:07.297Z,-34.01
2023-01-27T19:18:16.972Z,-33.96
2023-01-27T19:21:21.596Z,-33.98
2023-01-27T19:24:29.092Z,-34.23
2023-01-27T19:27:33.488Z,-34.32
2023-01-27T19:30:38.068Z,-34.02
2023-01-27T19:33:45.750Z,-34.10
2023-01-27T19:36:50.446Z,-33.96
2023-01-27T19:39:57.806Z,-34.19
2023-01-27T19:43:06.574Z,-33.81
2023-01-27T19:46:21.327Z,-33.48
2023-01-27T19:49:27.736Z,-33.73
2023-01-27T19:52:32.167Z,-34.31
2023-01-27T19:55:37.623Z,-34.14
2023-01-27T19:58:41.835Z,-33.88
2023-01-27T20:01:47.520Z,-33.96
2023-01-27T20:04:54.862Z,-34.38
2023-01-27T20:08:01.906Z,-34.69
2023-01-27T20:11:06.472Z,-34.31
2023-01-27T20:14:17.750Z,-33.90
2023-01-27T20:17:22.495Z,-33.81
2023-01-27T20:20:28.306Z,-33.85
2023-01-27T20:23:32.841Z,-34.05
2023-01-27T20:26:38.310Z,-34.31
2023-01-27T20:29:42.855Z,-34.23
2023-01-27T20:32:47.943Z,-34.65
2023-01-27T20:35:52.452Z,-34.28
2023-01-27T20:38:57.004Z,-34.70
2023-01-27T20:42:01.483Z,-34.82
2023-01-27T20:45:06.389Z,-34.80
2023-01-27T20:48:12.359Z,-34.43
2023-01-27T20:51:17.710Z,-34.46
2023-01-27T20:54:22.399Z,-34.90
2023-01-27T20:57:28.129Z,-34.58
2023-01-27T21:00:34.731Z,-34.38
2023-01-27T21:03:42.664Z,-35.12
2023-01-27T21:06:47.168Z,-35.32
2023-01-27T21:09:54.257Z,-34.90
2023-01-27T21:12:58.801Z,-34.91
2023-01-27T21:16:03.972Z,-34.69
2023-01-27T21:19:09.066Z,-34.72
2023-01-27T21:22:13.177Z,-34.87
2023-01-27T21:25:18.310Z,-34.65
2023-01-27T21:28:23.320Z,-34.93
2023-01-27T21:31:33.096Z,-35.10
2023-01-27T21:34:37.600Z,-35.07
2023-01-27T21:37:41.706Z,-35.38
2023-01-27T21:44:51.111Z,-34.95
2023-01-27T21:47:55.962Z,-35.31
2023-01-27T21:51:00.624Z,-35.12
2023-01-27T21:54:05.545Z,-35.26
2023-01-27T21:57:10.254Z,-35.14
2023-01-27T22:00:19.047Z,-35.23
2023-01-27T22:03:26.146Z,-34.93
2023-01-27T22:06:30.791Z,-35.29
2023-01-27T22:09:41.176Z,-35.31
2023-01-27T22:12:47.004Z,-35.09
2023-01-27T22:15:54.041Z,-35.56
2023-01-27T22:19:01.259Z,-35.40
2023-01-27T22:22:07.130Z,-34.87
2023-01-27T22:25:14.836Z,-35.16
2023-01-27T22:28:20.434Z,-35.20
2023-01-27T22:31:24.955Z,-35.62
2023-01-27T22:34:29.623Z,-35.43
2023-01-27T22:37:35.714Z,-35.94
2023-01-27T22:40:40.382Z,-35.63
2023-01-27T22:43:44.981Z,-35.24
2023-01-27T22:46:50.801Z,-35.17
2023-01-27T22:49:55.418Z,-35.22
2023-01-27T22:53:00.003Z,-35.61
2023-01-27T22:56:05.375Z,-35.41
2023-01-27T22:59:13.947Z,-35.63
2023-01-27T23:02:18.693Z,-36.44
2023-01-27T23:05:23.290Z,-36.26
2023-01-27T23:08:27.673Z,-35.72
2023-01-27T23:11:32.302Z,-35.10
2023-01-27T23:14:37.109Z,-34.68
2023-01-27T23:17:41.728Z,-33.80
2023-01-27T23:20:46.200Z,-34.04
2023-01-27T23:23:51.998Z,-33.54
2023-01-27T23:26:56.537Z,-33.21
2023-01-27T23:33:40.998Z,-32.65
2023-01-27T23:36:45.558Z,-32.28
2023-01-27T23:39:50.567Z,-31.57
2023-01-27T23:42:55.041Z,-31.88
2023-01-27T23:46:00.470Z,-31.59
2023-01-27T23:49:06.607Z,-31.52
2023-01-27T23:52:15.020Z,-30.69
2023-01-27T23:55:21.825Z,-30.27
2023-01-27T23:58:27.156Z,-31.27
